createdAt,value
2018-07-07T00:00:43.533Z,57.03
2018-07-07T00:01:43.520Z,57.03
2018-07-07T00:02:43.504Z,57.21
2018-07-07T00:03:43.490Z,57.21
2018-07-07T00:04:43.477Z,57.89
2018-07-07T00:05:43.464Z,57.70
2018-07-07T00:06:43.452Z,57.79
2018-07-07T00:07:43.433Z,57.79
2018-07-07T00:08:43.418Z,57.50
2018-07-07T00:09:43.406Z,58.27
2018-07-07T00:10:43.390Z,57.57
2018-07-07T00:11:43.375Z,57.89
2018-07-07T00:12:43.360Z,57.95
2018-07-07T00:13:43.346Z,57.86
2018-07-07T00:14:43.338Z,58.53
2018-07-07T00:15:43.319Z,58.62
2018-07-07T00:16:43.303Z,58.72
2018-07-07T00:17:43.289Z,58.53
2018-07-07T00:18:43.276Z,58.53
2018-07-07T00:19:43.260Z,58.91
2018-07-07T00:20:43.245Z,59.11
2018-07-07T00:21:43.234Z,59.11
2018-07-07T00:22:43.218Z,59.01
2018-07-07T00:23:43.205Z,59.30
2018-07-07T00:24:43.187Z,59.20
2018-07-07T00:25:43.173Z,59.87
2018-07-07T00:26:43.160Z,59.58
2018-07-07T00:27:43.141Z,59.68
2018-07-07T00:28:43.129Z,60.25
2018-07-07T00:29:43.112Z,59.77
2018-07-07T00:30:43.097Z,60.73
2018-07-07T00:31:43.083Z,60.44
2018-07-07T00:32:43.070Z,60.64
2018-07-07T00:33:43.054Z,60.83
2018-07-07T00:34:43.040Z,60.89
2018-07-07T00:35:43.026Z,61.50
2018-07-07T00:36:43.021Z,61.21
2018-07-07T00:37:42.996Z,61.21
2018-07-07T00:38:42.981Z,61.57
2018-07-07T00:39:42.966Z,62.43
2018-07-07T00:40:42.952Z,62.62
2018-07-07T00:41:42.937Z,62.23
2018-07-07T00:42:42.921Z,62.62
2018-07-07T00:43:42.909Z,63.00
2018-07-07T00:44:42.892Z,62.81
2018-07-07T00:45:42.877Z,63.29
2018-07-07T00:46:42.863Z,63.39
2018-07-07T00:47:42.850Z,63.76
2018-07-07T00:48:42.833Z,63.39
2018-07-07T00:49:42.820Z,64.34
2018-07-07T00:50:42.807Z,64.25
2018-07-07T00:51:42.789Z,64.34
2018-07-07T00:52:42.774Z,63.96
2018-07-07T00:53:42.764Z,64.92
2018-07-07T00:54:42.744Z,64.63
2018-07-07T00:55:42.733Z,64.69
2018-07-07T00:56:42.714Z,65.11
2018-07-07T00:57:42.703Z,64.98
2018-07-07T00:58:42.690Z,64.98
2018-07-07T00:59:42.671Z,65.55
2018-07-07T01:00:42.659Z,65.78
2018-07-07T01:01:42.639Z,65.65
2018-07-07T01:02:42.630Z,65.55
2018-07-07T01:03:42.610Z,65.45
2018-07-07T01:04:42.594Z,65.55
2018-07-07T01:05:42.579Z,65.94
2018-07-07T01:06:42.564Z,66.03
2018-07-07T01:07:42.550Z,66.32
2018-07-07T01:08:42.537Z,66.32
2018-07-07T01:09:42.522Z,66.22
2018-07-07T01:10:42.505Z,67.37
2018-07-07T01:11:42.489Z,66.70
2018-07-07T01:12:42.477Z,66.89
2018-07-07T01:13:42.461Z,67.27
2018-07-07T01:14:42.446Z,66.99
2018-07-07T01:15:42.432Z,67.37
2018-07-07T01:16:42.415Z,67.56
2018-07-07T01:17:42.404Z,67.94
2018-07-07T01:18:42.385Z,67.94
2018-07-07T01:19:42.370Z,68.42
2018-07-07T01:20:42.353Z,68.42
2018-07-07T01:21:42.338Z,68.62
2018-07-07T01:22:42.320Z,68.80
2018-07-07T01:23:42.307Z,68.71
2018-07-07T01:24:42.293Z,69.09
2018-07-07T01:25:42.275Z,69.09
2018-07-07T01:26:42.276Z,68.71
2018-07-07T01:27:42.249Z,69.29
2018-07-07T01:28:42.236Z,69.19
2018-07-07T01:29:42.228Z,69.09
2018-07-07T01:30:42.201Z,69.09
2018-07-07T01:31:42.184Z,69.29
2018-07-07T01:32:42.172Z,69.00
2018-07-07T01:33:42.154Z,69.19
2018-07-07T01:34:42.139Z,69.48
2018-07-07T01:35:42.124Z,69.48
2018-07-07T01:36:42.109Z,69.67
2018-07-07T01:37:42.109Z,69.86
2018-07-07T01:38:42.077Z,69.48
2018-07-07T01:39:42.062Z,69.76
2018-07-07T01:40:42.048Z,70.30
2018-07-07T01:41:42.034Z,70.50
2018-07-07T01:42:42.017Z,70.87
2018-07-07T01:43:42.002Z,70.68
2018-07-07T01:44:41.989Z,70.78
2018-07-07T01:45:41.969Z,70.87
2018-07-07T01:46:41.960Z,71.55
2018-07-07T01:47:41.938Z,71.45
2018-07-07T01:48:41.993Z,71.16
2018-07-07T01:49:41.909Z,71.36
2018-07-07T01:50:41.894Z,71.45
2018-07-07T01:51:41.878Z,71.64
2018-07-07T01:52:41.861Z,71.93
2018-07-07T01:53:41.845Z,71.93
2018-07-07T01:54:41.830Z,72.12
2018-07-07T01:55:41.817Z,72.50
2018-07-07T01:56:41.802Z,72.79
2018-07-07T01:57:41.784Z,72.60
2018-07-07T01:58:41.784Z,72.50
2018-07-07T01:59:41.754Z,72.50
2018-07-07T02:00:41.739Z,72.41
2018-07-07T02:01:41.723Z,72.88
2018-07-07T02:02:41.710Z,72.88
2018-07-07T02:03:41.693Z,73.52
2018-07-07T02:04:41.674Z,73.43
2018-07-07T02:05:41.658Z,73.75
2018-07-07T02:06:41.643Z,73.75
2018-07-07T02:07:41.627Z,73.36
2018-07-07T02:08:41.614Z,73.84
2018-07-07T02:09:41.597Z,73.75
2018-07-07T02:10:41.584Z,74.04
2018-07-07T02:11:41.568Z,73.84
2018-07-07T02:12:41.554Z,73.65
2018-07-07T02:13:41.537Z,73.99
2018-07-07T02:14:41.520Z,73.80
2018-07-07T02:15:41.505Z,74.04
2018-07-07T02:16:41.488Z,74.19
2018-07-07T02:17:41.473Z,74.76
2018-07-07T02:18:41.471Z,74.76
2018-07-07T02:19:41.443Z,74.85
2018-07-07T02:20:41.427Z,74.66
2018-07-07T02:21:41.408Z,75.52
2018-07-07T02:22:41.395Z,75.71
2018-07-07T02:23:41.378Z,75.71
2018-07-07T02:24:41.366Z,75.52
2018-07-07T02:25:41.346Z,75.43
2018-07-07T02:26:41.331Z,76.39
2018-07-07T02:27:41.316Z,76.10
2018-07-07T02:28:41.300Z,75.91
2018-07-07T02:29:41.286Z,76.57
2018-07-07T02:30:41.270Z,76.20
2018-07-07T02:31:41.258Z,76.20
2018-07-07T02:32:41.239Z,76.20
2018-07-07T02:33:41.219Z,76.20
2018-07-07T02:34:41.206Z,76.77
2018-07-07T02:35:41.187Z,76.86
2018-07-07T02:36:41.173Z,77.06
2018-07-07T02:37:41.161Z,76.96
2018-07-07T02:38:41.140Z,77.06
2018-07-07T02:39:41.129Z,77.72
2018-07-07T02:40:41.109Z,77.34
2018-07-07T02:41:41.099Z,77.92
2018-07-07T02:42:41.085Z,78.58
2018-07-07T02:43:41.063Z,78.01
2018-07-07T02:44:41.046Z,78.11
2018-07-07T02:45:41.042Z,78.45
2018-07-07T02:46:41.019Z,78.49
2018-07-07T02:47:41.000Z,78.58
2018-07-07T02:48:40.986Z,78.78
2018-07-07T02:49:40.967Z,78.64
2018-07-07T02:50:40.955Z,79.02
2018-07-07T02:51:40.944Z,78.55
2018-07-07T02:52:40.923Z,79.16
2018-07-07T02:53:40.907Z,79.35
2018-07-07T02:54:40.888Z,79.35
2018-07-07T02:55:40.870Z,79.22
2018-07-07T02:56:40.859Z,78.87
2018-07-07T02:57:40.840Z,79.25
2018-07-07T02:58:40.827Z,79.22
2018-07-07T02:59:40.810Z,79.83
2018-07-07T03:00:40.791Z,79.25
2018-07-07T03:01:40.779Z,79.54
2018-07-07T03:02:40.779Z,79.25
2018-07-07T03:03:40.745Z,79.93
2018-07-07T03:04:40.729Z,79.64
2018-07-07T03:05:40.712Z,79.60
2018-07-07T03:06:40.702Z,79.98
2018-07-07T03:07:40.680Z,80.17
2018-07-07T03:08:40.664Z,79.69
2018-07-07T03:09:40.653Z,80.11
2018-07-07T03:10:40.632Z,80.17
2018-07-07T03:11:40.616Z,79.88
2018-07-07T03:12:40.601Z,80.17
2018-07-07T03:13:40.582Z,80.07
2018-07-07T03:14:40.567Z,80.84
2018-07-07T03:15:40.551Z,80.65
2018-07-07T03:16:40.536Z,80.55
2018-07-07T03:17:40.522Z,80.55
2018-07-07T03:18:40.508Z,80.27
2018-07-07T03:19:40.487Z,80.36
2018-07-07T03:20:40.473Z,80.11
2018-07-07T03:21:40.454Z,80.11
2018-07-07T03:22:40.446Z,80.11
2018-07-07T03:23:40.422Z,80.21
2018-07-07T03:24:40.406Z,80.02
2018-07-07T03:25:40.388Z,80.27
2018-07-07T03:26:40.380Z,80.30
2018-07-07T03:27:40.359Z,80.59
2018-07-07T03:28:40.343Z,80.65
2018-07-07T03:29:40.327Z,80.50
2018-07-07T03:30:40.313Z,80.69
2018-07-07T03:31:40.298Z,80.59
2018-07-07T03:32:40.277Z,80.98
2018-07-07T03:33:40.258Z,80.84
2018-07-07T03:34:40.247Z,80.79
2018-07-07T03:35:40.229Z,81.03
2018-07-07T03:36:40.218Z,81.03
2018-07-07T03:37:40.194Z,81.22
2018-07-07T03:38:40.180Z,81.70
2018-07-07T03:39:40.173Z,81.51
2018-07-07T03:40:40.151Z,81.65
2018-07-07T03:41:40.129Z,81.32
2018-07-07T03:42:40.114Z,81.36
2018-07-07T03:43:40.100Z,81.65
2018-07-07T03:44:40.084Z,81.36
2018-07-07T03:45:40.066Z,81.60
2018-07-07T03:46:40.052Z,81.45
2018-07-07T03:47:40.036Z,81.26
2018-07-07T03:48:40.016Z,81.65
2018-07-07T03:49:40.003Z,81.55
2018-07-07T03:50:39.985Z,81.36
2018-07-07T03:51:39.969Z,81.45
2018-07-07T03:52:39.954Z,81.45
2018-07-07T03:53:39.937Z,81.36
2018-07-07T03:54:39.919Z,81.45
2018-07-07T03:55:39.902Z,81.45
2018-07-07T03:56:39.887Z,82.31
2018-07-07T03:57:39.870Z,81.74
2018-07-07T03:58:39.864Z,82.12
2018-07-07T03:59:39.838Z,81.74
2018-07-07T04:00:39.824Z,81.36
2018-07-07T04:01:39.812Z,81.26
2018-07-07T04:02:39.792Z,81.36
2018-07-07T04:03:39.777Z,81.45
2018-07-07T04:04:39.806Z,81.45
2018-07-07T04:05:39.743Z,81.65
2018-07-07T04:06:39.728Z,81.45
2018-07-07T04:07:39.711Z,81.26
2018-07-07T04:08:39.693Z,81.26
2018-07-07T04:09:39.677Z,81.36
2018-07-07T04:10:39.661Z,80.98
2018-07-07T04:11:39.646Z,80.98
2018-07-07T04:12:39.630Z,80.50
2018-07-07T04:13:39.611Z,80.59
2018-07-07T04:14:39.597Z,80.98
2018-07-07T04:15:39.583Z,80.59
2018-07-07T04:16:39.565Z,80.69
2018-07-07T04:17:39.552Z,81.07
2018-07-07T04:18:39.533Z,81.26
2018-07-07T04:19:39.521Z,81.36
2018-07-07T04:20:39.499Z,81.36
2018-07-07T04:21:39.491Z,81.45
2018-07-07T04:22:39.467Z,81.07
2018-07-07T04:23:39.451Z,81.16
2018-07-07T04:24:39.435Z,81.26
2018-07-07T04:25:39.418Z,81.16
2018-07-07T04:26:39.402Z,80.79
2018-07-07T04:27:39.393Z,81.07
2018-07-07T04:28:39.371Z,80.79
2018-07-07T04:29:39.356Z,80.40
2018-07-07T04:30:39.358Z,80.69
2018-07-07T04:31:39.324Z,81.11
2018-07-07T04:32:39.313Z,81.07
2018-07-07T04:33:39.293Z,80.69
2018-07-07T04:34:39.276Z,80.35
2018-07-07T04:35:39.266Z,81.11
2018-07-07T04:36:39.249Z,80.73
2018-07-07T04:37:39.229Z,80.63
2018-07-07T04:38:39.211Z,81.02
2018-07-07T04:39:39.193Z,80.92
2018-07-07T04:40:39.181Z,80.82
2018-07-07T04:41:39.163Z,81.02
2018-07-07T04:42:39.149Z,80.73
2018-07-07T04:43:39.130Z,80.73
2018-07-07T04:44:39.114Z,80.73
2018-07-07T04:45:39.098Z,80.63
2018-07-07T04:46:39.084Z,80.25
2018-07-07T04:47:39.069Z,79.96
2018-07-07T04:48:39.052Z,80.16
2018-07-07T04:49:39.035Z,79.96
2018-07-07T04:50:39.017Z,79.87
2018-07-07T04:51:39.002Z,79.96
2018-07-07T04:52:38.986Z,80.06
2018-07-07T04:53:38.975Z,79.96
2018-07-07T04:54:38.953Z,80.06
2018-07-07T04:55:38.938Z,79.29
2018-07-07T04:56:38.922Z,79.58
2018-07-07T04:57:38.908Z,79.29
2018-07-07T04:58:38.888Z,79.77
2018-07-07T04:59:38.877Z,79.68
2018-07-07T05:00:38.857Z,80.16
2018-07-07T05:01:38.842Z,80.06
2018-07-07T05:02:38.830Z,80.35
2018-07-07T05:03:38.815Z,80.06
2018-07-07T05:04:38.895Z,79.87
2018-07-07T05:05:38.777Z,80.16
2018-07-07T05:06:38.761Z,80.54
2018-07-07T05:07:38.745Z,79.96
2018-07-07T05:08:38.728Z,80.25
2018-07-07T05:09:38.713Z,80.29
2018-07-07T05:10:38.696Z,80.10
2018-07-07T05:11:38.685Z,79.72
2018-07-07T05:12:38.668Z,79.24
2018-07-07T05:13:38.650Z,79.43
2018-07-07T05:14:38.639Z,79.39
2018-07-07T05:15:38.756Z,79.24
2018-07-07T05:16:38.604Z,79.33
2018-07-07T05:17:38.588Z,79.43
2018-07-07T05:18:38.577Z,79.52
2018-07-07T05:19:38.558Z,79.91
2018-07-07T05:20:38.538Z,79.62
2018-07-07T05:21:38.520Z,78.66
2018-07-07T05:22:38.509Z,78.66
2018-07-07T05:23:38.491Z,79.05
2018-07-07T05:24:38.473Z,78.47
2018-07-07T05:25:38.457Z,79.24
2018-07-07T05:26:38.443Z,78.95
2018-07-07T05:27:38.425Z,78.57
2018-07-07T05:28:38.412Z,78.38
2018-07-07T05:29:38.396Z,78.76
2018-07-07T05:30:38.380Z,77.99
2018-07-07T05:31:38.372Z,78.28
2018-07-07T05:32:38.349Z,78.57
2018-07-07T05:33:38.343Z,78.09
2018-07-07T05:34:38.315Z,77.51
2018-07-07T05:35:38.300Z,77.90
2018-07-07T05:36:38.286Z,76.84
2018-07-07T05:37:38.269Z,77.46
2018-07-07T05:38:38.258Z,77.70
2018-07-07T05:39:38.239Z,77.61
2018-07-07T05:40:38.223Z,77.61
2018-07-07T05:41:38.205Z,77.70
2018-07-07T05:42:38.197Z,77.70
2018-07-07T05:43:38.174Z,76.84
2018-07-07T05:44:38.169Z,77.26
2018-07-07T05:45:38.145Z,77.13
2018-07-07T05:46:38.128Z,77.75
2018-07-07T05:47:38.111Z,77.46
2018-07-07T05:48:38.097Z,77.75
2018-07-07T05:49:38.080Z,77.46
2018-07-07T05:50:38.065Z,77.46
2018-07-07T05:51:38.052Z,77.04
2018-07-07T05:52:38.036Z,77.08
2018-07-07T05:53:38.017Z,76.79
2018-07-07T05:54:38.010Z,76.98
2018-07-07T05:55:37.987Z,76.98
2018-07-07T05:56:37.973Z,76.79
2018-07-07T05:57:37.957Z,77.46
2018-07-07T05:58:37.941Z,76.60
2018-07-07T05:59:37.926Z,76.60
2018-07-07T06:00:37.909Z,76.50
2018-07-07T06:01:37.896Z,76.02
2018-07-07T06:02:37.880Z,75.93
2018-07-07T06:03:37.864Z,76.31
2018-07-07T06:04:37.851Z,76.50
2018-07-07T06:05:37.839Z,76.98
2018-07-07T06:06:37.819Z,76.12
2018-07-07T06:07:37.802Z,76.02
2018-07-07T06:08:37.787Z,76.12
2018-07-07T06:09:37.771Z,76.21
2018-07-07T06:10:37.755Z,75.93
2018-07-07T06:11:37.743Z,76.40
2018-07-07T06:12:37.721Z,76.31
2018-07-07T06:13:37.707Z,76.35
2018-07-07T06:14:37.693Z,76.35
2018-07-07T06:15:37.678Z,75.68
2018-07-07T06:16:37.661Z,75.39
2018-07-07T06:17:37.647Z,76.06
2018-07-07T06:18:37.631Z,76.25
2018-07-07T06:19:37.629Z,75.87
2018-07-07T06:20:37.599Z,75.20
2018-07-07T06:21:37.586Z,75.48
2018-07-07T06:22:37.573Z,75.48
2018-07-07T06:23:37.551Z,74.91
2018-07-07T06:24:37.538Z,74.91
2018-07-07T06:25:37.524Z,74.43
2018-07-07T06:26:37.529Z,74.43
2018-07-07T06:27:37.491Z,74.24
2018-07-07T06:28:37.474Z,74.43
2018-07-07T06:29:37.473Z,74.82
2018-07-07T06:30:37.445Z,75.29
2018-07-07T06:31:37.433Z,74.91
2018-07-07T06:32:37.412Z,75.04
2018-07-07T06:33:37.398Z,74.62
2018-07-07T06:34:37.382Z,74.57
2018-07-07T06:35:37.369Z,74.47
2018-07-07T06:36:37.355Z,74.47
2018-07-07T06:37:37.338Z,74.08
2018-07-07T06:38:37.323Z,74.57
2018-07-07T06:39:37.306Z,73.90
2018-07-07T06:40:37.293Z,73.32
2018-07-07T06:41:37.275Z,72.74
2018-07-07T06:42:37.262Z,72.59
2018-07-07T06:43:37.259Z,72.27
2018-07-07T06:44:37.234Z,71.82
2018-07-07T06:45:37.216Z,72.68
2018-07-07T06:46:37.201Z,72.78
2018-07-07T06:47:37.191Z,72.68
2018-07-07T06:48:37.171Z,73.16
2018-07-07T06:49:37.154Z,72.78
2018-07-07T06:50:37.143Z,72.20
2018-07-07T06:51:37.129Z,71.28
2018-07-07T06:52:37.123Z,71.66
2018-07-07T06:53:37.102Z,71.05
2018-07-07T06:54:37.083Z,71.09
2018-07-07T06:55:37.065Z,70.80
2018-07-07T06:56:37.052Z,70.80
2018-07-07T06:57:37.035Z,69.84
2018-07-07T06:58:37.021Z,70.32
2018-07-07T06:59:37.033Z,70.70
2018-07-07T07:00:36.991Z,70.61
2018-07-07T07:01:36.979Z,69.84
2018-07-07T07:02:36.961Z,70.13
2018-07-07T07:03:36.950Z,71.09
2018-07-07T07:04:36.937Z,69.74
2018-07-07T07:05:36.920Z,70.13
2018-07-07T07:06:36.957Z,69.26
2018-07-07T07:07:36.897Z,69.46
2018-07-07T07:08:36.876Z,69.26
2018-07-07T07:09:36.860Z,69.46
2018-07-07T07:10:36.845Z,68.88
2018-07-07T07:11:36.831Z,68.79
2018-07-07T07:12:36.817Z,69.26
2018-07-07T07:13:36.801Z,68.82
2018-07-07T07:14:36.789Z,68.34
2018-07-07T07:15:36.773Z,68.82
2018-07-07T07:16:36.758Z,69.30
2018-07-07T07:17:36.743Z,68.34
2018-07-07T07:18:36.731Z,67.47
2018-07-07T07:19:36.714Z,67.76
2018-07-07T07:20:36.702Z,67.13
2018-07-07T07:21:36.700Z,65.69
2018-07-07T07:22:36.671Z,66.84
2018-07-07T07:23:36.661Z,67.22
2018-07-07T07:24:36.645Z,67.41
2018-07-07T07:25:36.630Z,66.16
2018-07-07T07:26:36.619Z,65.59
2018-07-07T07:27:36.603Z,65.97
2018-07-07T07:28:36.590Z,64.82
2018-07-07T07:29:36.581Z,64.63
2018-07-07T07:30:36.563Z,65.30
2018-07-07T07:31:36.552Z,66.30
2018-07-07T07:32:36.628Z,66.58
2018-07-07T07:33:36.518Z,65.72
2018-07-07T07:34:36.502Z,64.66
2018-07-07T07:35:36.490Z,63.51
2018-07-07T07:36:36.476Z,63.92
2018-07-07T07:37:36.474Z,64.12
2018-07-07T07:38:36.451Z,63.25
2018-07-07T07:39:36.435Z,63.15
2018-07-07T07:40:36.421Z,62.87
2018-07-07T07:41:36.408Z,63.15
2018-07-07T07:42:36.400Z,63.06
2018-07-07T07:43:36.381Z,63.73
2018-07-07T07:44:36.369Z,62.87
2018-07-07T07:45:36.363Z,62.19
2018-07-07T07:46:36.340Z,61.91
2018-07-07T07:47:36.326Z,62.48
2018-07-07T07:48:36.314Z,62.48
2018-07-07T07:49:36.297Z,62.68
2018-07-07T07:50:36.282Z,62.71
2018-07-07T07:51:36.267Z,61.65
2018-07-07T07:52:36.257Z,60.78
2018-07-07T07:53:36.248Z,60.69
2018-07-07T07:54:36.235Z,61.36
2018-07-07T07:55:36.218Z,62.74
2018-07-07T07:56:36.204Z,60.72
2018-07-07T07:57:36.191Z,59.85
2018-07-07T07:58:36.182Z,58.82
2018-07-07T07:59:36.169Z,58.85
2018-07-07T08:00:36.152Z,58.11
2018-07-07T08:01:36.140Z,56.81
2018-07-07T08:02:36.130Z,54.43
2018-07-07T08:03:36.114Z,51.78
2018-07-07T08:04:36.105Z,49.80
2018-07-07T08:05:36.092Z,47.02
2018-07-07T08:06:36.076Z,45.51
2018-07-07T08:07:36.468Z,43.91
2018-07-07T08:08:36.052Z,42.60
2018-07-07T08:09:36.038Z,41.16
2018-07-07T08:10:36.027Z,40.29
2018-07-07T08:11:36.014Z,41.28
2018-07-07T08:12:36.002Z,39.26
2018-07-07T08:13:35.987Z,38.39
2018-07-07T08:14:35.975Z,37.80
2018-07-07T08:15:35.965Z,37.90
2018-07-07T08:16:35.957Z,37.82
2018-07-07T08:17:35.940Z,37.35
2018-07-07T08:18:35.938Z,36.49
2018-07-07T08:19:35.918Z,35.83
2018-07-07T08:20:35.910Z,35.25
2018-07-07T08:21:35.900Z,35.33
2018-07-07T08:22:35.948Z,35.53
2018-07-07T08:23:35.880Z,35.15
2018-07-07T08:24:35.872Z,34.86
2018-07-07T08:25:35.865Z,34.86
2018-07-07T08:26:35.858Z,35.05
2018-07-07T08:27:35.848Z,35.11
2018-07-07T08:28:35.842Z,35.13
2018-07-07T08:29:35.835Z,35.52
2018-07-07T08:30:35.828Z,35.21
2018-07-07T08:31:35.825Z,36.98
2018-07-07T08:32:35.814Z,37.18
2018-07-07T08:33:35.808Z,35.61
2018-07-07T08:34:35.844Z,35.58
2018-07-07T08:35:35.801Z,36.46
2018-07-07T08:36:35.793Z,37.41
2018-07-07T08:37:35.788Z,37.12
2018-07-07T08:38:35.987Z,37.68
2018-07-07T08:39:35.776Z,38.54
2018-07-07T08:40:35.776Z,39.12
2018-07-07T08:41:35.767Z,39.12
2018-07-07T08:42:35.765Z,38.64
2018-07-07T08:43:35.762Z,39.22
2018-07-07T08:44:35.753Z,41.36
2018-07-07T08:45:35.756Z,38.93
2018-07-07T08:46:35.747Z,39.24
2018-07-07T08:47:35.744Z,39.24
2018-07-07T08:48:35.746Z,38.56
2018-07-07T08:49:35.737Z,37.68
2018-07-07T08:50:35.731Z,38.46
2018-07-07T08:51:35.729Z,37.98
2018-07-07T08:52:35.723Z,38.07
2018-07-07T08:53:35.724Z,38.65
2018-07-07T08:54:35.714Z,38.54
2018-07-07T08:55:35.712Z,38.44
2018-07-07T08:56:35.708Z,37.66
2018-07-07T08:57:35.707Z,38.06
2018-07-07T08:58:35.697Z,38.25
2018-07-07T08:59:35.695Z,38.21
2018-07-07T09:00:35.692Z,39.55
2018-07-07T09:01:35.682Z,40.33
2018-07-07T09:02:35.681Z,40.23
2018-07-07T09:03:35.675Z,40.23
2018-07-07T09:04:35.669Z,41.20
2018-07-07T09:05:35.664Z,40.50
2018-07-07T09:06:35.666Z,40.50
2018-07-07T09:07:35.658Z,40.50
2018-07-07T09:08:35.652Z,40.99
2018-07-07T09:09:35.646Z,41.78
2018-07-07T09:10:35.642Z,40.13
2018-07-07T09:11:35.636Z,39.86
2018-07-07T09:12:35.634Z,39.86
2018-07-07T09:13:35.624Z,40.56
2018-07-07T09:14:35.624Z,40.58
2018-07-07T09:15:35.618Z,39.80
2018-07-07T09:16:35.613Z,39.82
2018-07-07T09:17:35.606Z,39.26
2018-07-07T09:18:35.603Z,38.19
2018-07-07T09:19:35.597Z,37.34
2018-07-07T09:20:35.597Z,37.16
2018-07-07T09:21:35.584Z,37.46
2018-07-07T09:22:35.580Z,36.80
2018-07-07T09:23:35.576Z,34.58
2018-07-07T09:24:35.669Z,34.11
2018-07-07T09:25:35.565Z,33.06
2018-07-07T09:26:35.562Z,31.59
2018-07-07T09:27:35.559Z,30.62
2018-07-07T09:28:35.552Z,30.41
2018-07-07T09:29:35.558Z,31.40
2018-07-07T09:30:35.552Z,30.52
2018-07-07T09:31:35.540Z,31.40
2018-07-07T09:32:35.534Z,31.88
2018-07-07T09:33:35.535Z,31.59
2018-07-07T09:34:35.524Z,31.69
2018-07-07T09:35:35.525Z,30.99
2018-07-07T09:36:35.517Z,31.27
2018-07-07T09:37:35.511Z,31.35
2018-07-07T09:38:35.508Z,31.22
2018-07-07T09:39:35.502Z,32.07
2018-07-07T09:40:35.498Z,32.92
2018-07-07T09:41:35.492Z,34.46
2018-07-07T09:42:35.490Z,35.25
2018-07-07T09:43:35.485Z,33.31
2018-07-07T09:44:35.486Z,33.90
2018-07-07T09:45:35.473Z,35.10
2018-07-07T09:46:35.470Z,33.75
2018-07-07T09:47:35.470Z,32.49
2018-07-07T09:48:35.467Z,32.87
2018-07-07T09:49:35.457Z,33.48
2018-07-07T09:50:35.453Z,32.20
2018-07-07T09:51:35.448Z,31.79
2018-07-07T09:52:35.451Z,33.07
2018-07-07T09:53:35.438Z,33.34
2018-07-07T09:54:35.437Z,32.87
2018-07-07T09:55:35.435Z,32.40
2018-07-07T09:56:35.426Z,33.43
2018-07-07T09:57:35.427Z,31.88
2018-07-07T09:58:35.418Z,29.67
2018-07-07T09:59:35.416Z,28.71
2018-07-07T10:00:35.421Z,30.10
2018-07-07T10:01:35.406Z,29.45
2018-07-07T10:02:35.403Z,26.73
2018-07-07T10:03:35.402Z,25.65
2018-07-07T10:04:35.395Z,24.86
2018-07-07T10:05:35.393Z,25.76
2018-07-07T10:06:35.390Z,25.57
2018-07-07T10:07:35.425Z,26.78
2018-07-07T10:08:35.381Z,25.12
2018-07-07T10:09:35.379Z,24.14
2018-07-07T10:10:35.377Z,23.75
2018-07-07T10:11:35.376Z,23.27
2018-07-07T10:12:35.370Z,22.78
2018-07-07T10:13:35.460Z,22.58
2018-07-07T10:14:35.365Z,23.28
2018-07-07T10:15:35.363Z,22.28
2018-07-07T10:16:35.365Z,22.38
2018-07-07T10:17:35.361Z,23.27
2018-07-07T10:18:35.353Z,22.67
2018-07-07T10:19:35.354Z,22.19
2018-07-07T10:20:35.376Z,22.56
2018-07-07T10:21:35.348Z,22.88
2018-07-07T10:22:35.348Z,22.77
2018-07-07T10:23:35.348Z,24.27
2018-07-07T10:24:35.345Z,21.33
2018-07-07T10:25:35.343Z,20.35
2018-07-07T10:26:35.342Z,20.17
2018-07-07T10:27:35.339Z,20.17
2018-07-07T10:28:35.345Z,20.26
2018-07-07T10:29:35.346Z,19.77
2018-07-07T10:30:35.340Z,19.18
2018-07-07T10:31:35.373Z,19.56
2018-07-07T10:32:35.342Z,19.86
2018-07-07T10:33:35.328Z,19.56
2018-07-07T10:34:35.334Z,19.38
2018-07-07T10:35:35.325Z,19.56
2018-07-07T10:36:35.326Z,19.15
2018-07-07T10:37:35.379Z,20.53
2018-07-07T10:38:35.322Z,20.84
2018-07-07T10:39:35.322Z,19.18
2018-07-07T10:40:35.323Z,20.18
2018-07-07T10:41:35.326Z,17.83
2018-07-07T10:42:35.320Z,19.32
2018-07-07T10:43:35.328Z,16.66
2018-07-07T10:44:35.323Z,16.07
2018-07-07T10:45:35.385Z,15.67
2018-07-07T10:46:35.315Z,16.35
2018-07-07T10:47:35.317Z,16.94
2018-07-07T10:48:35.317Z,16.95
2018-07-07T10:49:35.317Z,16.47
2018-07-07T10:50:35.317Z,17.76
2018-07-07T10:51:35.319Z,17.17
2018-07-07T10:52:35.317Z,16.59
2018-07-07T10:53:35.316Z,16.40
2018-07-07T10:54:35.320Z,15.52
2018-07-07T10:55:35.374Z,15.33
2018-07-07T10:56:35.318Z,15.42
2018-07-07T10:57:35.318Z,15.33
2018-07-07T10:58:35.317Z,14.84
2018-07-07T10:59:35.318Z,14.95
2018-07-07T11:00:35.327Z,14.65
2018-07-07T11:01:35.323Z,15.26
2018-07-07T11:02:35.331Z,14.07
2018-07-07T11:03:35.321Z,14.07
2018-07-07T11:04:35.321Z,13.67
2018-07-07T11:05:35.321Z,14.37
2018-07-07T11:06:35.329Z,13.57
2018-07-07T11:07:35.324Z,13.65
2018-07-07T11:08:35.330Z,16.51
2018-07-07T11:09:35.327Z,14.93
2018-07-07T11:10:35.328Z,15.51
2018-07-07T11:11:35.331Z,15.30
2018-07-07T11:12:35.332Z,16.28
2018-07-07T11:13:35.332Z,15.39
2018-07-07T11:14:35.332Z,15.57
2018-07-07T11:15:35.334Z,16.43
2018-07-07T11:16:35.341Z,16.71
2018-07-07T11:17:35.344Z,18.05
2018-07-07T11:18:35.336Z,19.82
2018-07-07T11:19:35.336Z,19.62
2018-07-07T11:20:35.336Z,19.91
2018-07-07T11:21:35.345Z,19.62
2018-07-07T11:22:35.346Z,20.10
2018-07-07T11:23:35.336Z,19.81
2018-07-07T11:24:35.346Z,18.64
2018-07-07T11:25:35.339Z,19.24
2018-07-07T11:26:35.347Z,18.75
2018-07-07T11:27:35.334Z,18.36
2018-07-07T11:28:35.344Z,18.06
2018-07-07T11:29:35.336Z,18.17
2018-07-07T11:30:35.336Z,17.99
2018-07-07T11:31:35.338Z,16.91
2018-07-07T11:32:35.337Z,17.12
2018-07-07T11:33:35.342Z,17.14
2018-07-07T11:34:35.337Z,16.36
2018-07-07T11:35:35.340Z,16.36
2018-07-07T11:36:35.444Z,16.36
2018-07-07T11:37:35.332Z,16.36
2018-07-07T11:38:35.337Z,16.29
2018-07-07T11:39:35.337Z,13.93
2018-07-07T11:40:35.337Z,13.74
2018-07-07T11:41:35.345Z,13.53
2018-07-07T11:42:35.336Z,14.32
2018-07-07T11:43:35.336Z,14.02
2018-07-07T11:44:35.340Z,14.52
2018-07-07T11:45:35.339Z,14.51
2018-07-07T11:46:35.339Z,15.69
2018-07-07T11:47:35.340Z,15.78
2018-07-07T11:48:35.340Z,16.17
2018-07-07T11:49:35.341Z,15.19
2018-07-07T11:50:35.441Z,15.67
2018-07-07T11:51:35.344Z,17.06
2018-07-07T11:52:35.344Z,15.69
2018-07-07T11:53:35.342Z,15.39
2018-07-07T11:54:35.345Z,15.89
2018-07-07T11:55:35.353Z,16.09
2018-07-07T11:56:35.345Z,15.89
2018-07-07T11:57:35.345Z,15.70
2018-07-07T11:58:35.346Z,14.73
2018-07-07T11:59:35.351Z,14.93
2018-07-07T12:00:35.358Z,14.64
2018-07-07T12:01:35.349Z,13.55
2018-07-07T12:02:35.357Z,12.85
2018-07-07T12:03:35.352Z,12.95
2018-07-07T12:04:35.438Z,14.32
2018-07-07T12:05:35.352Z,15.11
2018-07-07T12:06:35.351Z,14.90
2018-07-07T12:07:35.356Z,14.20
2018-07-07T12:08:35.352Z,15.78
2018-07-07T12:09:35.352Z,14.00
2018-07-07T12:10:35.355Z,15.29
2018-07-07T12:11:35.380Z,15.79
2018-07-07T12:12:35.357Z,13.92
2018-07-07T12:13:35.354Z,14.80
2018-07-07T12:14:35.352Z,14.20
2018-07-07T12:15:35.356Z,14.20
2018-07-07T12:16:35.356Z,15.77
2018-07-07T12:17:35.352Z,15.67
2018-07-07T12:18:35.353Z,14.78
2018-07-07T12:19:35.352Z,15.28
2018-07-07T12:20:35.358Z,15.67
2018-07-07T12:21:35.368Z,16.36
2018-07-07T12:22:35.353Z,16.16
2018-07-07T12:23:35.354Z,15.86
2018-07-07T12:24:35.359Z,16.94
2018-07-07T12:25:35.353Z,15.17
2018-07-07T12:26:35.352Z,16.14
2018-07-07T12:27:35.353Z,16.94
2018-07-07T12:28:35.353Z,16.25
2018-07-07T12:29:35.352Z,15.56
2018-07-07T12:30:35.368Z,16.94
2018-07-07T12:31:35.349Z,16.94
2018-07-07T12:32:35.353Z,16.85
2018-07-07T12:33:35.356Z,17.14
2018-07-07T12:34:35.365Z,15.76
2018-07-07T12:35:35.356Z,14.86
2018-07-07T12:36:35.379Z,15.54
2018-07-07T12:37:35.351Z,16.51
2018-07-07T12:38:35.343Z,18.18
2018-07-07T12:39:35.346Z,16.89
2018-07-07T12:40:35.480Z,17.56
2018-07-07T12:41:35.343Z,18.64
2018-07-07T12:42:35.337Z,18.54
2018-07-07T12:43:35.346Z,18.04
2018-07-07T12:44:35.340Z,18.15
2018-07-07T12:45:35.334Z,19.23
2018-07-07T12:46:35.331Z,18.25
2018-07-07T12:47:35.331Z,19.13
2018-07-07T12:48:35.328Z,17.46
2018-07-07T12:49:35.328Z,19.12
2018-07-07T12:50:35.326Z,17.94
2018-07-07T12:51:35.321Z,18.71
2018-07-07T12:52:35.323Z,19.89